sensor_id;sensor_type;location;lat;lon;timestamp;pressure;altitude;pressure_sealevel;temperature;humidity
27864;BME280;15980;51.092;13.916;2022-11-04T00:03:44;97558.00;;;10.72;87.54
27864;BME280;15980;51.092;13.916;2022-11-04T00:08:48;97560.22;;;10.63;88.29
27864;BME280;15980;51.092;13.916;2022-11-04T00:13:51;97554.63;;;10.56;88.33
27864;BME280;15980;51.092;13.916;2022-11-04T00:18:55;97555.69;;;10.48;89.09
27864;BME280;15980;51.092;13.916;2022-11-04T00:23:57;97560.97;;;10.60;88.21
27864;BME280;15980;51.092;13.916;2022-11-04T00:29:18;97547.44;;;10.48;88.70
27864;BME280;15980;51.092;13.916;2022-11-04T00:34:22;97547.13;;;10.53;89.50
27864;BME280;15980;51.092;13.916;2022-11-04T00:39:24;97540.00;;;10.48;89.02
27864;BME280;15980;51.092;13.916;2022-11-04T00:44:27;97535.22;;;10.42;90.69
27864;BME280;15980;51.092;13.916;2022-11-04T00:49:31;97541.59;;;10.49;90.07
27864;BME280;15980;51.092;13.916;2022-11-04T00:54:34;97534.09;;;10.46;90.04
27864;BME280;15980;51.092;13.916;2022-11-04T00:59:37;97534.84;;;10.43;91.71
27864;BME280;15980;51.092;13.916;2022-11-04T01:04:41;97519.41;;;10.58;90.76
27864;BME280;15980;51.092;13.916;2022-11-04T01:09:44;97521.41;;;10.61;91.07
27864;BME280;15980;51.092;13.916;2022-11-04T01:14:46;97507.63;;;10.57;91.76
27864;BME280;15980;51.092;13.916;2022-11-04T01:19:51;97506.88;;;10.60;91.61
27864;BME280;15980;51.092;13.916;2022-11-04T01:24:54;97513.69;;;10.70;91.16
27864;BME280;15980;51.092;13.916;2022-11-04T01:29:57;97495.19;;;10.63;90.25
27864;BME280;15980;51.092;13.916;2022-11-04T01:35:01;97483.03;;;10.64;92.72
27864;BME280;15980;51.092;13.916;2022-11-04T01:40:04;97486.56;;;10.65;91.83
27864;BME280;15980;51.092;13.916;2022-11-04T01:45:12;97486.34;;;10.77;92.31
27864;BME280;15980;51.092;13.916;2022-11-04T01:50:20;97492.94;;;10.73;90.88
27864;BME280;15980;51.092;13.916;2022-11-04T01:55:26;97498.03;;;10.70;91.91
27864;BME280;15980;51.092;13.916;2022-11-04T02:00:30;97495.66;;;10.69;91.87
27864;BME280;15980;51.092;13.916;2022-11-04T02:05:34;97490.16;;;10.69;92.53
27864;BME280;15980;51.092;13.916;2022-11-04T02:10:39;97487.75;;;10.64;92.19
27864;BME280;15980;51.092;13.916;2022-11-04T02:15:47;97481.50;;;10.67;92.73
27864;BME280;15980;51.092;13.916;2022-11-04T02:21:31;97474.41;;;10.62;93.65
27864;BME280;15980;51.092;13.916;2022-11-04T02:32:18;97465.84;;;10.67;92.12
27864;BME280;15980;51.092;13.916;2022-11-04T02:37:24;97454.03;;;10.63;93.32
27864;BME280;15980;51.092;13.916;2022-11-04T02:42:33;97467.47;;;10.72;92.74
27864;BME280;15980;51.092;13.916;2022-11-04T02:47:43;97485.88;;;10.72;92.01
27864;BME280;15980;51.092;13.916;2022-11-04T02:52:52;97493.88;;;10.84;91.57
27864;BME280;15980;51.092;13.916;2022-11-04T02:57:58;97489.28;;;10.88;91.58
27864;BME280;15980;51.092;13.916;2022-11-04T03:03:08;97479.22;;;10.99;90.77
27864;BME280;15980;51.092;13.916;2022-11-04T03:08:15;97470.22;;;11.02;90.34
27864;BME280;15980;51.092;13.916;2022-11-04T03:13:24;97483.25;;;11.09;90.95
27864;BME280;15980;51.092;13.916;2022-11-04T03:18:36;97589.59;;;10.85;91.30
27864;BME280;15980;51.092;13.916;2022-11-04T03:23:42;97567.00;;;11.25;90.54
27864;BME280;15980;51.092;13.916;2022-11-04T03:28:50;97577.78;;;11.38;90.02
27864;BME280;15980;51.092;13.916;2022-11-04T03:33:57;97576.28;;;11.44;88.97
27864;BME280;15980;51.092;13.916;2022-11-04T03:39:00;97584.19;;;11.49;88.47
27864;BME280;15980;51.092;13.916;2022-11-04T03:44:03;97568.16;;;11.54;88.62
27864;BME280;15980;51.092;13.916;2022-11-04T03:49:08;97573.59;;;11.47;88.21
27864;BME280;15980;51.092;13.916;2022-11-04T03:54:13;97568.38;;;11.39;88.21
27864;BME280;15980;51.092;13.916;2022-11-04T03:59:32;97556.56;;;11.35;88.43
27864;BME280;15980;51.092;13.916;2022-11-04T04:04:43;97555.72;;;11.30;88.41
27864;BME280;15980;51.092;13.916;2022-11-04T04:09:54;97568.91;;;11.21;88.56
27864;BME280;15980;51.092;13.916;2022-11-04T04:15:03;97573.06;;;11.08;89.56
27864;BME280;15980;51.092;13.916;2022-11-04T04:20:12;97572.84;;;10.94;90.69
27864;BME280;15980;51.092;13.916;2022-11-04T04:25:17;97559.59;;;10.99;90.22
27864;BME280;15980;51.092;13.916;2022-11-04T04:30:47;97574.25;;;11.11;90.57
27864;BME280;15980;51.092;13.916;2022-11-04T04:35:53;97581.00;;;11.17;89.63
27864;BME280;15980;51.092;13.916;2022-11-04T04:41:02;97586.31;;;11.29;89.75
27864;BME280;15980;51.092;13.916;2022-11-04T04:46:24;97583.66;;;11.36;89.62
27864;BME280;15980;51.092;13.916;2022-11-04T04:51:29;97593.19;;;11.46;88.79
27864;BME280;15980;51.092;13.916;2022-11-04T04:56:32;97591.69;;;11.52;88.51
27864;BME280;15980;51.092;13.916;2022-11-04T05:01:35;97586.34;;;11.66;87.74
27864;BME280;15980;51.092;13.916;2022-11-04T05:06:39;97573.16;;;11.75;86.92
27864;BME280;15980;51.092;13.916;2022-11-04T05:11:41;97583.03;;;11.80;86.32
27864;BME280;15980;51.092;13.916;2022-11-04T05:16:44;97590.16;;;11.84;86.56
27864;BME280;15980;51.092;13.916;2022-11-04T05:21:48;97597.28;;;11.89;85.98
27864;BME280;15980;51.092;13.916;2022-11-04T05:26:51;97594.94;;;11.91;85.95
27864;BME280;15980;51.092;13.916;2022-11-04T05:31:53;97596.91;;;11.90;86.03
27864;BME280;15980;51.092;13.916;2022-11-04T05:36:58;97600.84;;;11.93;86.01
27864;BME280;15980;51.092;13.916;2022-11-04T05:42:01;97587.09;;;11.93;85.92
27864;BME280;15980;51.092;13.916;2022-11-04T05:47:03;97593.41;;;11.93;86.04
27864;BME280;15980;51.092;13.916;2022-11-04T05:52:07;97604.81;;;11.95;86.04
27864;BME280;15980;51.092;13.916;2022-11-04T05:57:10;97594.94;;;11.91;86.16
27864;BME280;15980;51.092;13.916;2022-11-04T06:02:13;97619.25;;;11.89;86.65
27864;BME280;15980;51.092;13.916;2022-11-04T06:10:31;97598.00;;;11.82;86.81
27864;BME280;15980;51.092;13.916;2022-11-04T06:20:21;97622.38;;;11.87;88.08
27864;BME280;15980;51.092;13.916;2022-11-04T06:26:31;97618.41;;;11.81;88.44
27864;BME280;15980;51.092;13.916;2022-11-04T06:31:36;97614.94;;;11.88;87.43
27864;BME280;15980;51.092;13.916;2022-11-04T06:36:41;97619.63;;;11.87;87.66
27864;BME280;15980;51.092;13.916;2022-11-04T06:41:48;97620.44;;;11.88;88.35
27864;BME280;15980;51.092;13.916;2022-11-04T06:46:53;97612.31;;;11.99;87.25
27864;BME280;15980;51.092;13.916;2022-11-04T06:51:58;97605.06;;;11.83;87.85
27864;BME280;15980;51.092;13.916;2022-11-04T06:57:05;97608.75;;;11.98;87.03
27864;BME280;15980;51.092;13.916;2022-11-04T07:02:10;97617.91;;;12.09;86.54
27864;BME280;15980;51.092;13.916;2022-11-04T07:07:14;97608.34;;;12.33;86.22
27864;BME280;15980;51.092;13.916;2022-11-04T07:12:22;97610.50;;;12.54;86.10
27864;BME280;15980;51.092;13.916;2022-11-04T07:17:26;97599.66;;;12.72;85.35
27864;BME280;15980;51.092;13.916;2022-11-04T07:22:31;97610.03;;;12.93;84.28
27864;BME280;15980;51.092;13.916;2022-11-04T07:27:38;97590.94;;;13.14;82.79
27864;BME280;15980;51.092;13.916;2022-11-04T07:32:43;97607.84;;;13.12;81.88
27864;BME280;15980;51.092;13.916;2022-11-04T07:37:47;97626.59;;;12.96;82.25
27864;BME280;15980;51.092;13.916;2022-11-04T07:42:55;97623.50;;;13.01;82.14
27864;BME280;15980;51.092;13.916;2022-11-04T07:47:59;97626.66;;;13.03;82.10
27864;BME280;15980;51.092;13.916;2022-11-04T07:53:04;97648.06;;;13.24;82.09
27864;BME280;15980;51.092;13.916;2022-11-04T07:58:11;97650.84;;;13.28;81.55
27864;BME280;15980;51.092;13.916;2022-11-04T08:03:16;97653.25;;;13.33;81.56
27864;BME280;15980;51.092;13.916;2022-11-04T08:08:21;97662.88;;;13.05;81.56
27864;BME280;15980;51.092;13.916;2022-11-04T08:13:29;97668.34;;;13.02;82.26
27864;BME280;15980;51.092;13.916;2022-11-04T08:18:34;97655.69;;;12.97;82.31
27864;BME280;15980;51.092;13.916;2022-11-04T08:23:39;97630.06;;;12.89;82.98
27864;BME280;15980;51.092;13.916;2022-11-04T08:28:47;97624.56;;;12.89;83.01
27864;BME280;15980;51.092;13.916;2022-11-04T08:33:53;97644.16;;;12.81;82.86
27864;BME280;15980;51.092;13.916;2022-11-04T08:38:58;97627.63;;;12.77;83.04
27864;BME280;15980;51.092;13.916;2022-11-04T08:44:12;97623.22;;;12.66;83.51
27864;BME280;15980;51.092;13.916;2022-11-04T08:49:16;97623.47;;;12.53;83.41
27864;BME280;15980;51.092;13.916;2022-11-04T08:54:21;97604.47;;;12.85;83.95
27864;BME280;15980;51.092;13.916;2022-11-04T08:59:29;97602.13;;;12.87;83.65
27864;BME280;15980;51.092;13.916;2022-11-04T09:04:34;97592.81;;;12.55;84.37
27864;BME280;15980;51.092;13.916;2022-11-04T09:09:39;97593.66;;;11.81;88.17
27864;BME280;15980;51.092;13.916;2022-11-04T09:14:47;97586.47;;;12.07;86.73
27864;BME280;15980;51.092;13.916;2022-11-04T09:19:51;97596.22;;;12.01;89.18
27864;BME280;15980;51.092;13.916;2022-11-04T09:24:56;97612.56;;;11.86;89.11
27864;BME280;15980;51.092;13.916;2022-11-04T09:30:05;97601.16;;;11.84;88.36
27864;BME280;15980;51.092;13.916;2022-11-04T09:35:10;97602.59;;;12.08;90.67
27864;BME280;15980;51.092;13.916;2022-11-04T09:40:19;97606.22;;;12.16;88.23
27864;BME280;15980;51.092;13.916;2022-11-04T09:45:28;97605.16;;;11.90;89.59
27864;BME280;15980;51.092;13.916;2022-11-04T09:50:42;97614.78;;;12.11;90.02
27864;BME280;15980;51.092;13.916;2022-11-04T09:55:49;97628.47;;;12.04;90.18
27864;BME280;15980;51.092;13.916;2022-11-04T10:01:02;97626.84;;;11.99;90.41
27864;BME280;15980;51.092;13.916;2022-11-04T10:06:23;97615.84;;;11.99;91.11
27864;BME280;15980;51.092;13.916;2022-11-04T10:11:34;97628.88;;;12.06;92.74
27864;BME280;15980;51.092;13.916;2022-11-04T10:16:51;97646.66;;;11.82;94.43
27864;BME280;15980;51.092;13.916;2022-11-04T10:22:03;97650.34;;;11.93;95.29
27864;BME280;15980;51.092;13.916;2022-11-04T10:27:16;97656.25;;;11.12;98.43
27864;BME280;15980;51.092;13.916;2022-11-04T10:32:28;97659.94;;;11.23;99.03
27864;BME280;15980;51.092;13.916;2022-11-04T10:37:35;97649.88;;;11.31;100.00
27864;BME280;15980;51.092;13.916;2022-11-04T10:42:40;97661.94;;;11.00;100.00
27864;BME280;15980;51.092;13.916;2022-11-04T10:47:52;97664.34;;;10.56;100.00
27864;BME280;15980;51.092;13.916;2022-11-04T10:53:08;97675.88;;;11.14;100.00
27864;BME280;15980;51.092;13.916;2022-11-04T10:58:19;97688.19;;;10.97;100.00
27864;BME280;15980;51.092;13.916;2022-11-04T11:03:30;97682.94;;;10.89;100.00
27864;BME280;15980;51.092;13.916;2022-11-04T11:08:35;97682.78;;;10.17;100.00
27864;BME280;15980;51.092;13.916;2022-11-04T11:13:42;97687.56;;;10.62;100.00
27864;BME280;15980;51.092;13.916;2022-11-04T11:19:12;97667.56;;;10.61;100.00
27864;BME280;15980;51.092;13.916;2022-11-04T11:24:20;97660.03;;;11.04;100.00
27864;BME280;15980;51.092;13.916;2022-11-04T11:29:28;97660.94;;;10.85;100.00
27864;BME280;15980;51.092;13.916;2022-11-04T11:34:43;97673.25;;;10.95;100.00
27864;BME280;15980;51.092;13.916;2022-11-04T11:39:49;97676.22;;;10.63;100.00
27864;BME280;15980;51.092;13.916;2022-11-04T11:44:55;97669.81;;;10.79;100.00
27864;BME280;15980;51.092;13.916;2022-11-04T11:50:14;97658.78;;;10.52;100.00
27864;BME280;15980;51.092;13.916;2022-11-04T11:55:22;97641.63;;;10.36;100.00
27864;BME280;15980;51.092;13.916;2022-11-04T12:00:30;97652.56;;;10.55;100.00
27864;BME280;15980;51.092;13.916;2022-11-04T12:05:46;97661.97;;;10.54;100.00
27864;BME280;15980;51.092;13.916;2022-11-04T12:11:21;97659.59;;;10.33;100.00
27864;BME280;15980;51.092;13.916;2022-11-04T12:16:36;97655.34;;;10.17;100.00
27864;BME280;15980;51.092;13.916;2022-11-04T12:21:55;97667.41;;;10.12;100.00
27864;BME280;15980;51.092;13.916;2022-11-04T12:27:08;97658.03;;;9.74;100.00
27864;BME280;15980;51.092;13.916;2022-11-04T12:32:34;97661.84;;;9.70;100.00
27864;BME280;15980;51.092;13.916;2022-11-04T12:37:53;97653.34;;;9.94;100.00
27864;BME280;15980;51.092;13.916;2022-11-04T12:43:18;97661.56;;;9.56;100.00
27864;BME280;15980;51.092;13.916;2022-11-04T12:48:48;97650.28;;;9.41;100.00
27864;BME280;15980;51.092;13.916;2022-11-04T12:54:10;97636.28;;;10.01;100.00
27864;BME280;15980;51.092;13.916;2022-11-04T12:59:32;97636.63;;;9.61;100.00
27864;BME280;15980;51.092;13.916;2022-11-04T13:04:47;97634.19;;;9.75;100.00
27864;BME280;15980;51.092;13.916;2022-11-04T13:09:58;97636.56;;;9.76;100.00
27864;BME280;15980;51.092;13.916;2022-11-04T13:15:13;97634.91;;;9.72;100.00
27864;BME280;15980;51.092;13.916;2022-11-04T13:20:27;97647.88;;;9.75;100.00
27864;BME280;15980;51.092;13.916;2022-11-04T13:25:40;97647.09;;;9.55;100.00
27864;BME280;15980;51.092;13.916;2022-11-04T13:30:58;97652.06;;;9.69;100.00
27864;BME280;15980;51.092;13.916;2022-11-04T13:36:11;97652.84;;;9.69;100.00
27864;BME280;15980;51.092;13.916;2022-11-04T13:41:34;97667.47;;;9.77;100.00
27864;BME280;15980;51.092;13.916;2022-11-04T13:46:46;97663.28;;;9.64;100.00
27864;BME280;15980;51.092;13.916;2022-11-04T13:52:00;97670.00;;;9.66;100.00
27864;BME280;15980;51.092;13.916;2022-11-04T13:57:13;97668.13;;;9.70;100.00
27864;BME280;15980;51.092;13.916;2022-11-04T14:08:07;97682.31;;;9.06;100.00
27864;BME280;15980;51.092;13.916;2022-11-04T14:13:42;97681.50;;;9.05;100.00
27864;BME280;15980;51.092;13.916;2022-11-04T14:18:48;97679.88;;;8.85;100.00
27864;BME280;15980;51.092;13.916;2022-11-04T14:23:55;97696.09;;;8.78;100.00
27864;BME280;15980;51.092;13.916;2022-11-04T14:29:06;97706.06;;;8.86;100.00
27864;BME280;15980;51.092;13.916;2022-11-04T14:34:23;97716.56;;;9.00;100.00
27864;BME280;15980;51.092;13.916;2022-11-04T14:39:38;97722.63;;;9.09;100.00
27864;BME280;15980;51.092;13.916;2022-11-04T14:44:47;97724.78;;;9.16;100.00
27864;BME280;15980;51.092;13.916;2022-11-04T14:50:01;97728.66;;;9.15;100.00
27864;BME280;15980;51.092;13.916;2022-11-04T14:55:12;97729.53;;;9.19;100.00
27864;BME280;15980;51.092;13.916;2022-11-04T15:00:26;97740.13;;;9.20;100.00
27864;BME280;15980;51.092;13.916;2022-11-04T15:05:32;97741.34;;;9.07;100.00
27864;BME280;15980;51.092;13.916;2022-11-04T15:10:38;97743.66;;;9.21;100.00
27864;BME280;15980;51.092;13.916;2022-11-04T15:15:46;97744.28;;;9.14;100.00
27864;BME280;15980;51.092;13.916;2022-11-04T15:20:54;97749.22;;;8.77;100.00
27864;BME280;15980;51.092;13.916;2022-11-04T15:26:00;97746.56;;;8.80;100.00
27864;BME280;15980;51.092;13.916;2022-11-04T15:31:14;97758.69;;;8.52;100.00
27864;BME280;15980;51.092;13.916;2022-11-04T15:36:22;97763.50;;;8.70;100.00
27864;BME280;15980;51.092;13.916;2022-11-04T15:41:30;97775.81;;;8.64;100.00
27864;BME280;15980;51.092;13.916;2022-11-04T15:46:52;97769.97;;;8.50;100.00
27864;BME280;15980;51.092;13.916;2022-11-04T15:51:59;97775.50;;;8.81;100.00
27864;BME280;15980;51.092;13.916;2022-11-04T15:57:12;97785.72;;;8.41;100.00
27864;BME280;15980;51.092;13.916;2022-11-04T16:02:26;97789.97;;;8.38;100.00
27864;BME280;15980;51.092;13.916;2022-11-04T16:07:34;97788.28;;;8.34;100.00
27864;BME280;15980;51.092;13.916;2022-11-04T16:12:42;97796.69;;;8.57;100.00
27864;BME280;15980;51.092;13.916;2022-11-04T16:17:50;97803.16;;;8.64;100.00
27864;BME280;15980;51.092;13.916;2022-11-04T16:22:55;97799.25;;;8.77;100.00
27864;BME280;15980;51.092;13.916;2022-11-04T16:28:01;97806.22;;;8.75;100.00
27864;BME280;15980;51.092;13.916;2022-11-04T16:33:09;97809.19;;;8.70;100.00
27864;BME280;15980;51.092;13.916;2022-11-04T16:38:14;97813.91;;;8.57;100.00
27864;BME280;15980;51.092;13.916;2022-11-04T16:43:21;97818.63;;;8.44;100.00
27864;BME280;15980;51.092;13.916;2022-11-04T16:48:28;97826.88;;;8.60;100.00
27864;BME280;15980;51.092;13.916;2022-11-04T16:53:34;97823.94;;;8.53;100.00
27864;BME280;15980;51.092;13.916;2022-11-04T16:58:39;97831.50;;;8.44;100.00
27864;BME280;15980;51.092;13.916;2022-11-04T17:03:46;97837.56;;;8.65;100.00
27864;BME280;15980;51.092;13.916;2022-11-04T17:08:51;97834.38;;;8.35;100.00
27864;BME280;15980;51.092;13.916;2022-11-04T17:13:56;97836.66;;;8.61;100.00
27864;BME280;15980;51.092;13.916;2022-11-04T17:19:03;97839.03;;;8.23;100.00
27864;BME280;15980;51.092;13.916;2022-11-04T17:24:09;97852.25;;;8.20;100.00
27864;BME280;15980;51.092;13.916;2022-11-04T17:29:14;97855.66;;;8.42;100.00
27864;BME280;15980;51.092;13.916;2022-11-04T17:34:21;97859.72;;;8.48;100.00
27864;BME280;15980;51.092;13.916;2022-11-04T17:39:27;97853.81;;;8.46;100.00
27864;BME280;15980;51.092;13.916;2022-11-04T17:44:31;97855.38;;;8.59;100.00
27864;BME280;15980;51.092;13.916;2022-11-04T17:49:39;97867.41;;;8.30;100.00
27864;BME280;15980;51.092;13.916;2022-11-04T17:54:46;97861.13;;;8.42;100.00
27864;BME280;15980;51.092;13.916;2022-11-04T17:59:50;97866.75;;;8.61;100.00
27864;BME280;15980;51.092;13.916;2022-11-04T18:04:58;97874.34;;;8.28;100.00
27864;BME280;15980;51.092;13.916;2022-11-04T18:10:04;97876.53;;;8.62;100.00
27864;BME280;15980;51.092;13.916;2022-11-04T18:15:10;97870.88;;;8.55;100.00
27864;BME280;15980;51.092;13.916;2022-11-04T18:20:20;97883.31;;;8.53;100.00
27864;BME280;15980;51.092;13.916;2022-11-04T18:25:24;97892.22;;;8.37;100.00
27864;BME280;15980;51.092;13.916;2022-11-04T18:30:29;97877.84;;;8.53;100.00
27864;BME280;15980;51.092;13.916;2022-11-04T18:35:37;97878.69;;;8.29;100.00
27864;BME280;15980;51.092;13.916;2022-11-04T18:40:42;97867.25;;;8.51;100.00
27864;BME280;15980;51.092;13.916;2022-11-04T18:45:47;97871.56;;;8.52;100.00
27864;BME280;15980;51.092;13.916;2022-11-04T18:50:57;97880.06;;;8.35;100.00
27864;BME280;15980;51.092;13.916;2022-11-04T18:56:03;97877.28;;;8.47;100.00
27864;BME280;15980;51.092;13.916;2022-11-04T19:01:10;97878.91;;;8.36;100.00
27864;BME280;15980;51.092;13.916;2022-11-04T19:06:19;97861.56;;;8.44;100.00
27864;BME280;15980;51.092;13.916;2022-11-04T19:11:28;97874.94;;;8.33;100.00
27864;BME280;15980;51.092;13.916;2022-11-04T19:16:33;97864.78;;;8.34;100.00
27864;BME280;15980;51.092;13.916;2022-11-04T19:21:40;97873.91;;;8.38;100.00
27864;BME280;15980;51.092;13.916;2022-11-04T19:26:46;97890.19;;;8.34;100.00
27864;BME280;15980;51.092;13.916;2022-11-04T19:31:51;97899.41;;;8.05;100.00
27864;BME280;15980;51.092;13.916;2022-11-04T19:36:58;97892.66;;;8.52;100.00
27864;BME280;15980;51.092;13.916;2022-11-04T19:42:03;97896.66;;;8.42;100.00
27864;BME280;15980;51.092;13.916;2022-11-04T19:47:21;97912.63;;;8.40;100.00
27864;BME280;15980;51.092;13.916;2022-11-04T19:52:29;97911.22;;;8.46;100.00
27864;BME280;15980;51.092;13.916;2022-11-04T19:57:34;97912.34;;;8.57;100.00
27864;BME280;15980;51.092;13.916;2022-11-04T20:02:39;97922.75;;;8.39;100.00
27864;BME280;15980;51.092;13.916;2022-11-04T20:07:47;97938.09;;;8.56;100.00
27864;BME280;15980;51.092;13.916;2022-11-04T20:12:54;97933.31;;;8.53;100.00
27864;BME280;15980;51.092;13.916;2022-11-04T20:18:26;97944.03;;;8.46;100.00
27864;BME280;15980;51.092;13.916;2022-11-04T20:23:34;97959.53;;;8.42;100.00
27864;BME280;15980;51.092;13.916;2022-11-04T20:28:38;97968.63;;;8.58;100.00
27864;BME280;15980;51.092;13.916;2022-11-04T20:33:44;97967.69;;;8.66;100.00
27864;BME280;15980;51.092;13.916;2022-11-04T20:38:54;97973.44;;;8.37;100.00
27864;BME280;15980;51.092;13.916;2022-11-04T20:43:59;97982.38;;;8.62;100.00
27864;BME280;15980;51.092;13.916;2022-11-04T20:49:05;97989.25;;;8.56;100.00
27864;BME280;15980;51.092;13.916;2022-11-04T20:54:12;97984.69;;;8.72;100.00
27864;BME280;15980;51.092;13.916;2022-11-04T20:59:17;97986.41;;;8.52;100.00
27864;BME280;15980;51.092;13.916;2022-11-04T21:04:22;97990.72;;;8.53;100.00
27864;BME280;15980;51.092;13.916;2022-11-04T21:09:29;97996.31;;;8.69;100.00
27864;BME280;15980;51.092;13.916;2022-11-04T21:14:33;97998.72;;;8.46;100.00
27864;BME280;15980;51.092;13.916;2022-11-04T21:19:38;98004.75;;;8.39;100.00
27864;BME280;15980;51.092;13.916;2022-11-04T21:24:45;98012.72;;;8.44;100.00
27864;BME280;15980;51.092;13.916;2022-11-04T21:29:50;98012.91;;;8.64;100.00
27864;BME280;15980;51.092;13.916;2022-11-04T21:34:55;98019.09;;;8.36;100.00
27864;BME280;15980;51.092;13.916;2022-11-04T21:40:02;98018.72;;;8.62;100.00
27864;BME280;15980;51.092;13.916;2022-11-04T21:45:08;98025.38;;;8.49;100.00
27864;BME280;15980;51.092;13.916;2022-11-04T21:50:12;98025.16;;;8.42;100.00
27864;BME280;15980;51.092;13.916;2022-11-04T21:55:21;98023.19;;;8.55;100.00
27864;BME280;15980;51.092;13.916;2022-11-04T22:00:25;98035.28;;;8.41;100.00
27864;BME280;15980;51.092;13.916;2022-11-04T22:05:30;98033.00;;;8.56;100.00
27864;BME280;15980;51.092;13.916;2022-11-04T22:10:37;98031.28;;;8.51;100.00
27864;BME280;15980;51.092;13.916;2022-11-04T22:15:42;98038.81;;;8.42;100.00
27864;BME280;15980;51.092;13.916;2022-11-04T22:21:04;98042.06;;;8.23;100.00
27864;BME280;15980;51.092;13.916;2022-11-04T22:26:13;98047.88;;;8.22;100.00
27864;BME280;15980;51.092;13.916;2022-11-04T22:31:20;98048.31;;;8.11;100.00
27864;BME280;15980;51.092;13.916;2022-11-04T22:36:25;98045.88;;;8.43;100.00
27864;BME280;15980;51.092;13.916;2022-11-04T22:41:33;98056.50;;;7.99;100.00
27864;BME280;15980;51.092;13.916;2022-11-04T22:46:38;98060.63;;;8.17;100.00
27864;BME280;15980;51.092;13.916;2022-11-04T22:51:44;98053.69;;;8.32;100.00
27864;BME280;15980;51.092;13.916;2022-11-04T22:56:51;98048.47;;;8.27;100.00
27864;BME280;15980;51.092;13.916;2022-11-04T23:01:56;98053.06;;;8.35;100.00
27864;BME280;15980;51.092;13.916;2022-11-04T23:07:01;98054.75;;;8.40;100.00
27864;BME280;15980;51.092;13.916;2022-11-04T23:12:08;98069.56;;;8.39;100.00
27864;BME280;15980;51.092;13.916;2022-11-04T23:17:26;98058.97;;;8.49;100.00
27864;BME280;15980;51.092;13.916;2022-11-04T23:22:43;98063.63;;;8.49;100.00
27864;BME280;15980;51.092;13.916;2022-11-04T23:28:03;98060.88;;;8.25;100.00
27864;BME280;15980;51.092;13.916;2022-11-04T23:33:20;98069.38;;;8.11;100.00
27864;BME280;15980;51.092;13.916;2022-11-04T23:38:45;98064.22;;;7.97;100.00
27864;BME280;15980;51.092;13.916;2022-11-04T23:43:53;98070.72;;;8.05;100.00
27864;BME280;15980;51.092;13.916;2022-11-04T23:48:58;98080.31;;;8.11;100.00
27864;BME280;15980;51.092;13.916;2022-11-04T23:54:15;98084.41;;;8.17;100.00
27864;BME280;15980;51.092;13.916;2022-11-04T23:59:34;98085.63;;;8.53;100.00
